createdAt,value
2022-10-24T00:00:07.822Z,10.80
2022-10-24T00:00:44.374Z,10.80
2022-10-24T00:01:29.861Z,10.80
2022-10-24T00:02:07.677Z,10.80
2022-10-24T00:02:48.011Z,10.80
2022-10-24T00:03:23.315Z,10.80
2022-10-24T00:04:00.289Z,10.90
2022-10-24T00:04:36.641Z,10.80
2022-10-24T00:05:12.669Z,10.80
2022-10-24T00:05:50.304Z,10.80
2022-10-24T00:06:24.860Z,10.80
2022-10-24T00:06:59.330Z,10.80
2022-10-24T00:07:34.233Z,10.80
2022-10-24T00:08:08.183Z,10.80
2022-10-24T00:08:45.172Z,10.80
2022-10-24T00:09:21.371Z,10.80
2022-10-24T00:09:55.318Z,10.80
2022-10-24T00:10:30.969Z,10.80
2022-10-24T00:11:11.882Z,10.80
2022-10-24T00:11:46.409Z,10.80
2022-10-24T00:12:56.124Z,10.80
2022-10-24T00:13:31.642Z,10.80
2022-10-24T00:14:08.427Z,10.80
2022-10-24T00:14:46.040Z,10.80
2022-10-24T00:15:25.403Z,10.80
2022-10-24T00:16:02.331Z,10.80
2022-10-24T00:16:37.549Z,10.80
2022-10-24T00:17:11.934Z,10.80
2022-10-24T00:17:48.557Z,10.80
2022-10-24T00:18:23.691Z,10.80
2022-10-24T00:18:58.466Z,10.80
2022-10-24T00:19:35.026Z,10.80
2022-10-24T00:20:11.936Z,10.80
2022-10-24T00:20:45.989Z,10.80
2022-10-24T00:21:22.468Z,10.80
2022-10-24T00:21:56.319Z,10.80
2022-10-24T00:22:31.933Z,10.80
2022-10-24T00:23:06.818Z,10.80
2022-10-24T00:23:43.403Z,10.80
2022-10-24T00:24:17.545Z,10.80
2022-10-24T00:24:53.548Z,10.80
2022-10-24T00:25:27.891Z,10.80
2022-10-24T00:26:02.772Z,10.80
2022-10-24T00:26:38.745Z,10.80
2022-10-24T00:27:13.168Z,10.70
2022-10-24T00:27:48.529Z,10.70
2022-10-24T00:28:25.752Z,10.70
2022-10-24T00:29:36.123Z,10.70
2022-10-24T00:30:13.298Z,10.70
2022-10-24T00:30:52.095Z,10.70
2022-10-24T00:31:26.715Z,10.70
2022-10-24T00:32:01.803Z,10.70
2022-10-24T00:32:37.187Z,10.70
2022-10-24T00:33:14.026Z,10.70
2022-10-24T00:33:49.080Z,10.70
2022-10-24T00:34:24.104Z,10.70
2022-10-24T00:34:59.394Z,10.70
2022-10-24T00:35:33.857Z,10.70
2022-10-24T00:36:14.454Z,10.70
2022-10-24T00:36:48.568Z,10.70
2022-10-24T00:37:22.954Z,10.70
2022-10-24T00:37:58.935Z,10.70
2022-10-24T00:38:33.789Z,10.70
2022-10-24T00:39:10.336Z,10.70
2022-10-24T00:39:44.651Z,10.70
2022-10-24T00:40:23.127Z,10.70
2022-10-24T00:40:56.912Z,10.70
2022-10-24T00:41:35.458Z,10.70
2022-10-24T00:42:12.043Z,10.60
2022-10-24T00:42:45.813Z,10.70
2022-10-24T00:43:22.792Z,10.70
2022-10-24T00:44:16.181Z,10.70
2022-10-24T00:44:53.660Z,10.70
2022-10-24T00:45:49.850Z,10.70
2022-10-24T00:46:24.666Z,10.60
2022-10-24T00:47:04.155Z,10.60
2022-10-24T00:47:39.696Z,10.60
2022-10-24T00:48:19.957Z,10.60
2022-10-24T00:48:55.987Z,10.60
2022-10-24T00:49:36.637Z,10.60
2022-10-24T00:50:13.709Z,10.70
2022-10-24T00:50:50.221Z,10.60
2022-10-24T00:51:29.339Z,10.60
2022-10-24T00:52:08.251Z,10.70
2022-10-24T00:52:47.316Z,10.70
2022-10-24T00:53:24.317Z,10.60
2022-10-24T00:54:02.796Z,10.70
2022-10-24T00:54:40.987Z,10.70
2022-10-24T00:55:17.120Z,10.70
2022-10-24T00:55:55.738Z,10.70
2022-10-24T00:56:32.073Z,10.60
2022-10-24T00:57:13.611Z,10.70
2022-10-24T00:57:50.739Z,10.70
2022-10-24T00:58:31.248Z,10.60
2022-10-24T00:59:08.492Z,10.70
2022-10-24T00:59:46.146Z,10.70
2022-10-24T01:00:25.291Z,10.70
2022-10-24T01:01:01.865Z,10.70
2022-10-24T01:01:52.094Z,10.70
2022-10-24T01:02:29.549Z,10.70
2022-10-24T01:03:14.357Z,10.60
2022-10-24T01:03:49.419Z,10.70
2022-10-24T01:04:23.764Z,10.70
2022-10-24T01:04:58.876Z,10.70
2022-10-24T01:05:42.524Z,10.70
2022-10-24T01:06:34.310Z,10.70
2022-10-24T01:07:21.800Z,10.70
2022-10-24T01:08:09.975Z,10.70
2022-10-24T01:08:48.611Z,10.60
2022-10-24T01:10:00.382Z,10.60
2022-10-24T01:10:42.748Z,10.60
2022-10-24T01:11:31.229Z,10.70
2022-10-24T01:12:19.032Z,10.60
2022-10-24T01:13:01.995Z,10.60
2022-10-24T01:13:47.763Z,10.60
2022-10-24T01:14:35.718Z,10.60
2022-10-24T01:15:19.270Z,10.60
2022-10-24T01:16:16.711Z,10.60
2022-10-24T01:16:56.437Z,10.60
2022-10-24T01:17:38.367Z,10.60
2022-10-24T01:18:19.664Z,10.60
2022-10-24T01:19:03.159Z,10.60
2022-10-24T01:20:19.630Z,10.50
2022-10-24T01:21:07.388Z,10.60
2022-10-24T01:21:51.402Z,10.50
2022-10-24T01:22:31.286Z,10.50
2022-10-24T01:23:24.437Z,10.50
2022-10-24T01:24:19.378Z,10.50
2022-10-24T01:25:10.195Z,10.50
2022-10-24T01:25:55.430Z,10.50
2022-10-24T01:26:57.235Z,10.50
2022-10-24T01:27:58.743Z,10.50
2022-10-24T01:28:41.298Z,10.50
2022-10-24T01:29:20.754Z,10.60
2022-10-24T01:30:04.372Z,10.50
2022-10-24T01:30:43.236Z,10.60
2022-10-24T01:31:23.467Z,10.60
2022-10-24T01:31:59.779Z,10.60
2022-10-24T01:32:49.627Z,10.60
2022-10-24T01:33:33.376Z,10.60
2022-10-24T01:34:16.869Z,10.60
2022-10-24T01:35:00.784Z,10.60
2022-10-24T01:35:41.479Z,10.60
2022-10-24T01:36:18.718Z,10.60
2022-10-24T01:37:00.798Z,10.60
2022-10-24T01:37:41.313Z,10.60
2022-10-24T01:38:20.733Z,10.60
2022-10-24T01:38:59.425Z,10.50
2022-10-24T01:39:38.722Z,10.60
2022-10-24T01:40:16.432Z,10.50
2022-10-24T01:40:55.518Z,10.50
2022-10-24T01:41:32.306Z,10.50
2022-10-24T01:42:08.762Z,10.50
2022-10-24T01:42:45.845Z,10.50
2022-10-24T01:43:27.959Z,10.50
2022-10-24T01:44:08.229Z,10.50
2022-10-24T01:44:43.576Z,10.50
2022-10-24T01:45:26.330Z,10.50
2022-10-24T01:46:04.859Z,10.50
2022-10-24T01:46:41.839Z,10.50
2022-10-24T01:47:18.783Z,10.50
2022-10-24T01:47:58.243Z,10.50
2022-10-24T01:48:39.815Z,10.50
2022-10-24T01:49:18.118Z,10.50
2022-10-24T01:49:56.044Z,10.50
2022-10-24T01:50:31.399Z,10.50
2022-10-24T01:51:09.187Z,10.50
2022-10-24T01:51:44.676Z,10.50
2022-10-24T01:52:20.498Z,10.50
2022-10-24T01:53:00.006Z,10.50
2022-10-24T01:53:36.880Z,10.50
2022-10-24T01:54:12.954Z,10.40
2022-10-24T01:54:50.433Z,10.50
2022-10-24T01:55:26.204Z,10.40
2022-10-24T01:56:03.381Z,10.40
2022-10-24T01:56:37.487Z,10.40
2022-10-24T01:57:14.392Z,10.40
2022-10-24T01:57:48.682Z,10.40
2022-10-24T01:58:22.501Z,10.40
2022-10-24T01:59:08.967Z,10.40
2022-10-24T01:59:48.354Z,10.40
2022-10-24T02:00:28.135Z,10.40
2022-10-24T02:01:09.716Z,10.40
2022-10-24T02:01:45.307Z,10.40
2022-10-24T02:02:24.400Z,10.40
2022-10-24T02:03:08.944Z,10.40
2022-10-24T02:03:48.835Z,10.40
2022-10-24T02:04:26.061Z,10.40
2022-10-24T02:05:05.243Z,10.40
2022-10-24T02:05:45.314Z,10.40
2022-10-24T02:06:24.863Z,10.40
2022-10-24T02:07:01.874Z,10.40
2022-10-24T02:07:38.585Z,10.40
2022-10-24T02:08:14.642Z,10.40
2022-10-24T02:08:54.403Z,10.40
2022-10-24T02:09:30.495Z,10.40
2022-10-24T02:10:09.055Z,10.40
2022-10-24T02:10:49.272Z,10.40
2022-10-24T02:11:24.854Z,10.40
2022-10-24T02:12:02.574Z,10.40
2022-10-24T02:12:43.332Z,10.40
2022-10-24T02:13:22.476Z,10.40
2022-10-24T02:14:02.513Z,10.40
2022-10-24T02:14:40.830Z,10.40
2022-10-24T02:15:20.588Z,10.40
2022-10-24T02:16:01.819Z,10.40
2022-10-24T02:16:35.836Z,10.40
2022-10-24T02:17:11.857Z,10.30
2022-10-24T02:17:47.980Z,10.30
2022-10-24T02:18:21.892Z,10.30
2022-10-24T02:18:57.005Z,10.30
2022-10-24T02:19:33.489Z,10.30
2022-10-24T02:20:09.995Z,10.30
2022-10-24T02:20:53.832Z,10.30
2022-10-24T02:21:34.426Z,10.30
2022-10-24T02:22:18.664Z,10.30
2022-10-24T02:23:00.814Z,10.30
2022-10-24T02:23:41.413Z,10.30
2022-10-24T02:24:18.503Z,10.30
2022-10-24T02:24:57.589Z,10.30
2022-10-24T02:25:38.652Z,10.30
2022-10-24T02:26:20.210Z,10.30
2022-10-24T02:26:59.497Z,10.30
2022-10-24T02:27:37.238Z,10.30
2022-10-24T02:28:16.570Z,10.30
2022-10-24T02:28:53.107Z,10.30
2022-10-24T02:29:35.915Z,10.30
2022-10-24T02:30:14.157Z,10.30
2022-10-24T02:30:55.774Z,10.30
2022-10-24T02:31:35.395Z,10.30
2022-10-24T02:32:13.712Z,10.30
2022-10-24T02:32:52.468Z,10.30
2022-10-24T02:33:29.379Z,10.30
2022-10-24T02:34:07.389Z,10.30
2022-10-24T02:34:44.951Z,10.30
2022-10-24T02:35:23.470Z,10.30
2022-10-24T02:35:58.837Z,10.30
2022-10-24T02:36:36.894Z,10.30
2022-10-24T02:37:14.154Z,10.30
2022-10-24T02:37:53.897Z,10.30
2022-10-24T02:38:32.925Z,10.30
2022-10-24T02:39:10.546Z,10.30
2022-10-24T02:39:48.695Z,10.30
2022-10-24T02:40:24.093Z,10.30
2022-10-24T02:41:02.199Z,10.30
2022-10-24T02:41:40.551Z,10.30
2022-10-24T02:42:17.142Z,10.30
2022-10-24T02:42:55.293Z,10.30
2022-10-24T02:43:31.791Z,10.30
2022-10-24T02:44:08.978Z,10.30
2022-10-24T02:44:47.979Z,10.30
2022-10-24T02:45:24.593Z,10.30
2022-10-24T02:45:59.784Z,10.30
2022-10-24T02:46:39.817Z,10.20
2022-10-24T02:47:16.048Z,10.20
2022-10-24T02:47:52.831Z,10.30
2022-10-24T02:48:35.714Z,10.30
2022-10-24T02:49:10.003Z,10.30
2022-10-24T02:49:44.972Z,10.30
2022-10-24T02:50:22.298Z,10.30
2022-10-24T02:50:56.355Z,10.20
2022-10-24T02:51:34.255Z,10.20
2022-10-24T02:52:11.453Z,10.20
2022-10-24T02:52:47.948Z,10.20
2022-10-24T02:53:25.842Z,10.20
2022-10-24T02:54:00.775Z,10.20
2022-10-24T02:54:34.742Z,10.20
2022-10-24T02:55:10.329Z,10.20
2022-10-24T02:55:44.495Z,10.20
2022-10-24T02:56:19.606Z,10.20
2022-10-24T02:56:58.882Z,10.10
2022-10-24T02:57:33.813Z,10.10
2022-10-24T02:58:09.141Z,10.10
2022-10-24T02:58:42.942Z,10.10
2022-10-24T02:59:17.414Z,10.10
2022-10-24T02:59:52.313Z,10.10
2022-10-24T03:00:28.688Z,10.10
2022-10-24T03:01:03.867Z,10.10
2022-10-24T03:01:53.388Z,10.10
2022-10-24T03:02:32.868Z,10.10
2022-10-24T03:03:10.573Z,10.00
2022-10-24T03:03:46.002Z,10.00
2022-10-24T03:04:19.863Z,10.00
2022-10-24T03:04:55.297Z,10.00
2022-10-24T03:05:30.005Z,10.00
2022-10-24T03:06:03.710Z,10.00
2022-10-24T03:06:38.709Z,10.00
2022-10-24T03:07:14.459Z,9.90
2022-10-24T03:07:49.512Z,10.00
2022-10-24T03:08:24.802Z,10.00
2022-10-24T03:08:59.516Z,10.00
2022-10-24T03:09:33.963Z,10.00
2022-10-24T03:10:10.311Z,9.90
2022-10-24T03:10:46.352Z,9.90
2022-10-24T03:11:20.367Z,9.90
2022-10-24T03:11:55.256Z,9.90
2022-10-24T03:12:31.409Z,10.00
2022-10-24T03:13:04.717Z,9.90
2022-10-24T03:13:39.427Z,9.90
2022-10-24T03:14:14.518Z,9.90
2022-10-24T03:14:49.952Z,10.00
2022-10-24T03:15:26.160Z,10.00
2022-10-24T03:16:00.430Z,10.00
2022-10-24T03:16:35.439Z,10.00
2022-10-24T03:17:11.783Z,10.00
2022-10-24T03:17:48.376Z,9.90
2022-10-24T03:18:23.268Z,10.00
2022-10-24T03:19:00.213Z,10.00
2022-10-24T03:19:35.246Z,10.00
2022-10-24T03:20:12.547Z,9.90
2022-10-24T03:20:49.126Z,9.90
2022-10-24T03:21:24.106Z,9.90
2022-10-24T03:21:59.152Z,9.90
2022-10-24T03:22:35.047Z,9.90
2022-10-24T03:23:09.989Z,9.90
2022-10-24T03:23:44.362Z,9.90
2022-10-24T03:24:31.098Z,9.90
2022-10-24T03:25:15.182Z,9.90
2022-10-24T03:25:51.445Z,9.90
2022-10-24T03:26:25.572Z,9.80
2022-10-24T03:27:01.357Z,9.80
2022-10-24T03:27:36.840Z,9.80
2022-10-24T03:28:11.869Z,9.80
2022-10-24T03:28:46.833Z,9.80
2022-10-24T03:29:22.608Z,9.80
2022-10-24T03:29:57.235Z,9.80
2022-10-24T03:30:30.964Z,9.80
2022-10-24T03:31:06.533Z,9.80
2022-10-24T03:31:41.842Z,9.80
2022-10-24T03:32:17.831Z,9.80
2022-10-24T03:32:53.776Z,9.80
2022-10-24T03:33:27.964Z,9.80
2022-10-24T03:34:02.361Z,9.80
2022-10-24T03:34:38.340Z,9.80
2022-10-24T03:35:14.223Z,9.80
2022-10-24T03:35:53.368Z,9.80
2022-10-24T03:36:27.901Z,9.80
2022-10-24T03:37:01.381Z,9.80
2022-10-24T03:37:35.224Z,9.80
2022-10-24T03:38:10.235Z,9.80
2022-10-24T03:38:43.609Z,9.80
2022-10-24T03:39:18.885Z,9.80
2022-10-24T03:39:54.019Z,9.80
2022-10-24T03:40:28.974Z,9.80
2022-10-24T03:41:05.913Z,9.80
2022-10-24T03:41:40.197Z,9.80
2022-10-24T03:42:15.974Z,9.80
2022-10-24T03:42:50.911Z,9.80
2022-10-24T03:43:24.912Z,9.80
2022-10-24T03:44:00.906Z,9.80
2022-10-24T03:44:36.077Z,9.80
2022-10-24T03:45:11.344Z,9.80
2022-10-24T03:45:47.405Z,9.80
2022-10-24T03:46:21.851Z,9.80
2022-10-24T03:46:58.058Z,9.80
2022-10-24T03:47:34.114Z,9.80
2022-10-24T03:48:08.146Z,9.80
2022-10-24T03:48:43.171Z,9.80
2022-10-24T03:49:18.672Z,9.80
2022-10-24T03:49:54.079Z,9.80
2022-10-24T03:50:29.426Z,9.80
2022-10-24T03:51:03.944Z,9.80
2022-10-24T03:51:38.422Z,9.80
2022-10-24T03:52:13.138Z,9.70
2022-10-24T03:52:47.518Z,9.70
2022-10-24T03:53:23.464Z,9.70
2022-10-24T03:53:57.489Z,9.70
2022-10-24T03:54:35.125Z,9.70
2022-10-24T03:55:12.451Z,9.70
2022-10-24T03:55:49.045Z,9.70
2022-10-24T03:56:23.541Z,9.70
2022-10-24T03:56:57.812Z,9.80
2022-10-24T03:57:34.304Z,9.80
2022-10-24T03:58:08.752Z,9.80
2022-10-24T03:58:44.624Z,9.80
2022-10-24T03:59:18.725Z,9.80
2022-10-24T03:59:53.364Z,9.80
2022-10-24T04:00:32.710Z,9.80
2022-10-24T04:01:11.116Z,9.70
2022-10-24T04:01:54.956Z,9.80
2022-10-24T04:02:39.100Z,9.80
2022-10-24T04:03:16.367Z,9.80
2022-10-24T04:03:55.230Z,9.80
2022-10-24T04:04:31.179Z,9.80
2022-10-24T04:05:06.296Z,9.80
2022-10-24T04:05:41.546Z,9.80
2022-10-24T04:06:17.038Z,9.80
2022-10-24T04:06:52.377Z,9.80
2022-10-24T04:07:28.442Z,9.80
2022-10-24T04:08:02.867Z,9.80
2022-10-24T04:08:38.717Z,9.80
2022-10-24T04:09:12.486Z,9.80
2022-10-24T04:09:47.382Z,9.80
2022-10-24T04:10:22.560Z,9.80
2022-10-24T04:10:57.044Z,9.80
2022-10-24T04:11:31.904Z,9.80
2022-10-24T04:12:09.430Z,9.80
2022-10-24T04:12:43.709Z,9.80
2022-10-24T04:13:18.016Z,9.80
2022-10-24T04:13:54.225Z,9.80
2022-10-24T04:14:29.327Z,9.80
2022-10-24T04:15:05.151Z,9.80
2022-10-24T04:15:41.162Z,9.80
2022-10-24T04:16:15.532Z,9.80
2022-10-24T04:16:49.284Z,9.80
2022-10-24T04:17:25.625Z,9.80
2022-10-24T04:18:01.399Z,9.80
2022-10-24T04:18:36.155Z,9.80
2022-10-24T04:19:12.864Z,9.80
2022-10-24T04:19:47.713Z,9.80
2022-10-24T04:20:23.839Z,9.80
2022-10-24T04:20:59.249Z,9.80
2022-10-24T04:21:33.544Z,9.80
2022-10-24T04:22:08.602Z,9.80
2022-10-24T04:22:45.420Z,9.80
2022-10-24T04:23:20.485Z,9.80
2022-10-24T04:23:56.198Z,9.80
2022-10-24T04:24:31.009Z,9.80
2022-10-24T04:25:07.133Z,9.80
2022-10-24T04:25:43.005Z,9.80
2022-10-24T04:26:21.505Z,9.80
2022-10-24T04:26:57.072Z,9.80
2022-10-24T04:27:31.939Z,9.80
2022-10-24T04:28:07.028Z,9.80
2022-10-24T04:28:42.211Z,9.80
2022-10-24T04:29:16.902Z,9.80
2022-10-24T04:29:51.577Z,9.80
2022-10-24T04:30:27.201Z,9.80
2022-10-24T04:31:02.258Z,9.80
2022-10-24T04:31:36.720Z,9.80
2022-10-24T04:32:12.345Z,9.80
2022-10-24T04:32:48.849Z,9.90
2022-10-24T04:33:24.284Z,9.90
2022-10-24T04:33:59.838Z,9.90
2022-10-24T04:34:36.789Z,9.90
2022-10-24T04:35:12.672Z,9.90
2022-10-24T04:35:48.960Z,9.90
2022-10-24T04:36:24.574Z,9.90
2022-10-24T04:36:59.424Z,9.90
2022-10-24T04:37:33.884Z,9.90
2022-10-24T04:38:10.667Z,9.90
2022-10-24T04:38:45.145Z,9.90
2022-10-24T04:39:20.408Z,9.90
2022-10-24T04:39:56.613Z,9.90
2022-10-24T04:40:30.595Z,9.90
2022-10-24T04:41:09.761Z,9.90
2022-10-24T04:41:47.687Z,9.90
2022-10-24T04:42:22.784Z,9.90
2022-10-24T04:42:57.112Z,9.90
2022-10-24T04:43:32.293Z,9.90
2022-10-24T04:44:07.152Z,10.00
2022-10-24T04:44:43.413Z,9.90
2022-10-24T04:45:17.767Z,9.90
2022-10-24T04:45:51.921Z,10.00
2022-10-24T04:46:27.803Z,10.00
2022-10-24T04:47:02.394Z,10.00
2022-10-24T04:47:36.499Z,10.00
2022-10-24T04:48:13.054Z,10.00
2022-10-24T04:48:48.971Z,10.00
2022-10-24T04:49:23.886Z,10.00
2022-10-24T04:50:00.010Z,10.00
2022-10-24T04:50:35.698Z,10.00
2022-10-24T04:51:11.019Z,10.00
2022-10-24T04:51:47.217Z,10.00
2022-10-24T04:52:21.613Z,10.00
2022-10-24T04:52:56.157Z,10.00
2022-10-24T04:53:31.983Z,10.00
2022-10-24T04:54:09.371Z,10.00
2022-10-24T04:54:44.139Z,10.00
2022-10-24T04:55:20.822Z,10.00
2022-10-24T04:55:55.898Z,10.00
2022-10-24T04:56:30.766Z,10.00
2022-10-24T04:57:07.614Z,10.00
2022-10-24T04:57:42.815Z,10.00
2022-10-24T04:58:17.927Z,10.00
2022-10-24T04:58:54.960Z,10.00
2022-10-24T04:59:29.388Z,10.00
2022-10-24T05:00:06.348Z,10.10
2022-10-24T05:00:43.486Z,10.10
2022-10-24T05:01:20.750Z,10.10
2022-10-24T05:02:00.856Z,10.10
2022-10-24T05:02:40.451Z,10.10
2022-10-24T05:03:23.005Z,10.10
2022-10-24T05:03:59.275Z,10.10
2022-10-24T05:04:35.427Z,10.10
2022-10-24T05:05:10.895Z,10.00
2022-10-24T05:05:45.092Z,10.00
2022-10-24T05:06:20.051Z,10.10
2022-10-24T05:06:54.104Z,10.00
2022-10-24T05:07:28.726Z,10.10
2022-10-24T05:08:05.529Z,10.10
2022-10-24T05:08:39.670Z,10.00
2022-10-24T05:09:15.245Z,10.00
2022-10-24T05:09:49.646Z,10.00
2022-10-24T05:10:25.602Z,10.00
2022-10-24T05:11:01.071Z,10.00
2022-10-24T05:11:36.064Z,10.00
2022-10-24T05:12:12.666Z,10.00
2022-10-24T05:12:48.003Z,10.00
2022-10-24T05:13:24.664Z,10.00
2022-10-24T05:13:59.003Z,10.00
2022-10-24T05:14:34.955Z,10.00
2022-10-24T05:15:10.456Z,10.00
2022-10-24T05:15:45.929Z,10.00
2022-10-24T05:16:20.998Z,10.00
2022-10-24T05:16:56.835Z,10.00
2022-10-24T05:17:31.385Z,10.00
2022-10-24T05:18:04.892Z,10.00
2022-10-24T05:18:41.327Z,10.00
2022-10-24T05:19:18.326Z,10.00
2022-10-24T05:19:52.967Z,10.00
2022-10-24T05:20:28.389Z,10.00
2022-10-24T05:21:02.934Z,10.00
2022-10-24T05:21:38.419Z,10.00
2022-10-24T05:22:14.846Z,10.00
2022-10-24T05:22:50.644Z,10.00
2022-10-24T05:23:26.239Z,10.10
2022-10-24T05:24:01.364Z,10.10
2022-10-24T05:24:36.336Z,10.10
2022-10-24T05:25:13.737Z,10.10
2022-10-24T05:25:49.180Z,10.00
2022-10-24T05:26:24.111Z,10.10
2022-10-24T05:26:59.875Z,10.10
2022-10-24T05:27:34.454Z,10.10
2022-10-24T05:28:09.276Z,10.10
2022-10-24T05:28:50.087Z,10.10
2022-10-24T05:29:27.560Z,10.10
2022-10-24T05:30:03.562Z,10.10
2022-10-24T05:30:37.857Z,10.10
2022-10-24T05:31:14.766Z,10.10
2022-10-24T05:31:48.721Z,10.10
2022-10-24T05:32:23.220Z,10.10
2022-10-24T05:32:58.626Z,10.10
2022-10-24T05:33:32.886Z,10.10
2022-10-24T05:34:07.822Z,10.10
2022-10-24T05:34:45.452Z,10.10
2022-10-24T05:35:20.464Z,10.10
2022-10-24T05:35:57.044Z,10.10
2022-10-24T05:36:31.775Z,10.10
2022-10-24T05:37:06.232Z,10.10
2022-10-24T05:37:41.816Z,10.10
2022-10-24T05:38:16.146Z,10.10
2022-10-24T05:38:51.243Z,10.10
2022-10-24T05:39:27.070Z,10.10
2022-10-24T05:40:00.364Z,10.20
2022-10-24T05:40:34.164Z,10.20
2022-10-24T05:41:09.977Z,10.20
2022-10-24T05:41:46.968Z,10.20
2022-10-24T05:42:22.229Z,10.20
2022-10-24T05:42:56.828Z,10.10
2022-10-24T05:43:33.735Z,10.20
2022-10-24T05:44:09.195Z,10.20
2022-10-24T05:44:43.894Z,10.20
2022-10-24T05:45:22.324Z,10.20
2022-10-24T05:45:57.449Z,10.20
2022-10-24T05:46:34.164Z,10.20
2022-10-24T05:47:08.636Z,10.20
2022-10-24T05:47:43.617Z,10.20
2022-10-24T05:48:18.809Z,10.20
2022-10-24T05:48:53.754Z,10.20
2022-10-24T05:49:30.057Z,10.20
2022-10-24T05:50:06.374Z,10.20
2022-10-24T05:50:42.614Z,10.20
2022-10-24T05:51:16.889Z,10.20
2022-10-24T05:51:51.850Z,10.20
2022-10-24T05:52:27.847Z,10.20
2022-10-24T05:53:02.194Z,10.20
2022-10-24T05:53:37.304Z,10.20
2022-10-24T05:54:55.689Z,10.20
2022-10-24T05:55:41.236Z,10.20
2022-10-24T05:56:14.371Z,10.20
2022-10-24T05:56:48.787Z,10.20
2022-10-24T05:57:24.756Z,10.30
2022-10-24T05:57:58.840Z,10.20
2022-10-24T05:58:32.542Z,10.20
2022-10-24T05:59:08.132Z,10.20
2022-10-24T05:59:43.289Z,10.20
2022-10-24T06:00:22.026Z,10.20
2022-10-24T06:00:59.624Z,10.20
2022-10-24T06:01:34.556Z,10.20
2022-10-24T06:02:13.137Z,10.20
2022-10-24T06:02:51.231Z,10.20
2022-10-24T06:03:29.889Z,10.20
2022-10-24T06:04:05.523Z,10.20
2022-10-24T06:04:41.757Z,10.20
2022-10-24T06:05:18.324Z,10.20
2022-10-24T06:05:53.128Z,10.30
2022-10-24T06:06:29.595Z,10.20
2022-10-24T06:07:04.390Z,10.20
2022-10-24T06:07:42.934Z,10.30
2022-10-24T06:08:17.974Z,10.30
2022-10-24T06:08:54.777Z,10.20
2022-10-24T06:09:28.955Z,10.30
2022-10-24T06:10:05.286Z,10.30
2022-10-24T06:10:40.543Z,10.30
2022-10-24T06:11:15.591Z,10.20
2022-10-24T06:11:51.666Z,10.30
2022-10-24T06:12:25.969Z,10.20
2022-10-24T06:13:00.356Z,10.30
2022-10-24T06:13:36.371Z,10.30
2022-10-24T06:14:10.590Z,10.30
2022-10-24T06:14:45.170Z,10.30
2022-10-24T06:15:20.830Z,10.30
2022-10-24T06:15:56.252Z,10.30
2022-10-24T06:16:31.631Z,10.30
2022-10-24T06:17:09.874Z,10.30
2022-10-24T06:17:44.120Z,10.30
2022-10-24T06:18:19.246Z,10.30
2022-10-24T06:18:54.148Z,10.30
2022-10-24T06:19:26.829Z,10.30
2022-10-24T06:20:03.380Z,10.30
2022-10-24T06:20:40.157Z,10.30
2022-10-24T06:21:15.950Z,10.30
2022-10-24T06:21:51.992Z,10.30
2022-10-24T06:22:28.397Z,10.30
2022-10-24T06:23:03.607Z,10.30
2022-10-24T06:23:37.821Z,10.30
2022-10-24T06:24:12.144Z,10.30
2022-10-24T06:24:48.477Z,10.30
2022-10-24T06:25:24.981Z,10.30
2022-10-24T06:26:01.039Z,10.30
2022-10-24T06:26:36.026Z,10.30
2022-10-24T06:27:11.728Z,10.30
2022-10-24T06:27:45.991Z,10.30
2022-10-24T06:28:22.934Z,10.30
2022-10-24T06:28:57.205Z,10.30
2022-10-24T06:29:33.259Z,10.30
2022-10-24T06:30:12.532Z,10.30
2022-10-24T06:30:49.453Z,10.30
2022-10-24T06:31:26.389Z,10.30
2022-10-24T06:32:01.312Z,10.30
2022-10-24T06:32:35.201Z,10.30
2022-10-24T06:33:10.456Z,10.30
2022-10-24T06:33:44.851Z,10.30
2022-10-24T06:34:18.608Z,10.30
2022-10-24T06:34:53.581Z,10.30
2022-10-24T06:35:28.633Z,10.30
2022-10-24T06:36:07.212Z,10.30
2022-10-24T06:36:42.035Z,10.30
2022-10-24T06:37:18.002Z,10.40
2022-10-24T06:37:52.471Z,10.40
2022-10-24T06:38:32.465Z,10.30
2022-10-24T06:39:07.952Z,10.40
2022-10-24T06:39:48.354Z,10.40
2022-10-24T06:40:22.793Z,10.40
2022-10-24T06:40:58.943Z,10.40
2022-10-24T06:41:34.381Z,10.40
2022-10-24T06:42:09.841Z,10.40
2022-10-24T06:42:44.298Z,10.40
2022-10-24T06:43:20.392Z,10.40
2022-10-24T06:43:54.634Z,10.40
2022-10-24T06:44:30.152Z,10.40
2022-10-24T06:45:03.661Z,10.40
2022-10-24T06:45:40.833Z,10.50
2022-10-24T06:46:18.045Z,10.50
2022-10-24T06:46:54.199Z,10.50
2022-10-24T06:47:28.407Z,10.50
2022-10-24T06:48:03.896Z,10.50
2022-10-24T06:48:39.651Z,10.50
2022-10-24T06:49:14.902Z,10.50
2022-10-24T06:49:51.375Z,10.50
2022-10-24T06:50:26.057Z,10.50
2022-10-24T06:51:08.245Z,10.60
2022-10-24T06:51:43.636Z,10.60
2022-10-24T06:52:19.431Z,10.60
2022-10-24T06:52:54.414Z,10.60
2022-10-24T06:53:28.743Z,10.60
2022-10-24T06:54:05.297Z,10.70
2022-10-24T06:54:41.936Z,10.70
2022-10-24T06:55:18.801Z,10.70
2022-10-24T06:55:53.232Z,10.70
2022-10-24T06:56:28.396Z,10.70
2022-10-24T06:57:03.364Z,10.80
2022-10-24T06:57:41.761Z,10.70
2022-10-24T06:58:18.100Z,10.80
2022-10-24T06:58:53.480Z,10.80
2022-10-24T06:59:29.296Z,10.80
2022-10-24T07:00:04.446Z,10.80
2022-10-24T07:00:39.814Z,10.90
2022-10-24T07:01:24.574Z,10.90
2022-10-24T07:02:05.794Z,11.00
2022-10-24T07:02:44.430Z,11.00
2022-10-24T07:03:22.332Z,11.00
2022-10-24T07:03:57.747Z,11.00
2022-10-24T07:04:32.425Z,11.10
2022-10-24T07:05:13.425Z,11.10
2022-10-24T07:05:49.023Z,11.10
2022-10-24T07:06:27.810Z,11.10
2022-10-24T07:07:02.179Z,11.10
2022-10-24T07:07:37.733Z,11.20
2022-10-24T07:08:12.831Z,11.20
2022-10-24T07:08:48.199Z,11.20
2022-10-24T07:09:23.124Z,11.20
2022-10-24T07:10:00.071Z,11.20
2022-10-24T07:10:36.480Z,11.20
2022-10-24T07:11:12.502Z,11.30
2022-10-24T07:11:47.330Z,11.20
2022-10-24T07:12:21.335Z,11.20
2022-10-24T07:12:58.194Z,11.30
2022-10-24T07:13:33.272Z,11.30
2022-10-24T07:14:10.554Z,11.30
2022-10-24T07:14:45.436Z,11.30
2022-10-24T07:15:20.343Z,11.30
2022-10-24T07:15:56.734Z,11.30
2022-10-24T07:16:31.268Z,11.30
2022-10-24T07:17:06.753Z,11.30
2022-10-24T07:17:41.372Z,11.30
2022-10-24T07:18:17.947Z,11.30
2022-10-24T07:18:52.557Z,11.20
2022-10-24T07:19:27.475Z,11.20
2022-10-24T07:20:02.883Z,11.20
2022-10-24T07:21:15.724Z,11.20
2022-10-24T07:21:52.101Z,11.20
2022-10-24T07:22:30.259Z,11.20
2022-10-24T07:23:07.245Z,11.20
2022-10-24T07:23:42.717Z,11.20
2022-10-24T07:24:17.823Z,11.20
2022-10-24T07:24:56.222Z,11.20
2022-10-24T07:25:31.635Z,11.20
2022-10-24T07:26:08.403Z,11.20
2022-10-24T07:26:42.196Z,11.20
2022-10-24T07:27:16.171Z,11.10
2022-10-24T07:27:55.447Z,11.10
2022-10-24T07:28:29.774Z,11.10
2022-10-24T07:29:04.674Z,11.10
2022-10-24T07:29:42.325Z,11.10
2022-10-24T07:30:18.970Z,11.20
2022-10-24T07:30:59.122Z,11.20
2022-10-24T07:31:35.744Z,11.20
2022-10-24T07:32:11.425Z,11.20
2022-10-24T07:32:47.647Z,11.20
2022-10-24T07:33:22.494Z,11.20
2022-10-24T07:33:57.074Z,11.20
2022-10-24T07:34:33.047Z,11.20
2022-10-24T07:35:09.571Z,11.20
2022-10-24T07:35:45.596Z,11.20
2022-10-24T07:36:20.948Z,11.20
2022-10-24T07:36:57.474Z,11.30
2022-10-24T07:37:32.966Z,11.30
2022-10-24T07:38:07.368Z,11.30
2022-10-24T07:38:43.352Z,11.30
2022-10-24T07:39:18.882Z,11.30
2022-10-24T07:39:54.410Z,11.30
2022-10-24T07:40:28.240Z,11.40
2022-10-24T07:41:06.303Z,11.40
2022-10-24T07:41:42.408Z,11.40
2022-10-24T07:42:19.784Z,11.40
2022-10-24T07:42:54.639Z,11.40
2022-10-24T07:43:30.042Z,11.40
2022-10-24T07:44:06.325Z,11.40
2022-10-24T07:44:42.304Z,11.40
2022-10-24T07:45:16.764Z,11.40
2022-10-24T07:45:52.324Z,11.40
2022-10-24T07:46:28.005Z,11.40
2022-10-24T07:47:07.402Z,11.40
2022-10-24T07:47:42.971Z,11.40
2022-10-24T07:48:18.984Z,11.40
2022-10-24T07:48:54.408Z,11.40
2022-10-24T07:49:31.555Z,11.40
2022-10-24T07:50:09.193Z,11.40
2022-10-24T07:50:46.772Z,11.40
2022-10-24T07:51:28.693Z,11.40
2022-10-24T07:52:05.729Z,11.40
2022-10-24T07:52:40.599Z,11.50
2022-10-24T07:53:16.843Z,11.50
2022-10-24T07:54:26.996Z,11.60
2022-10-24T07:55:01.968Z,11.70
2022-10-24T07:55:40.222Z,11.70
2022-10-24T07:56:17.822Z,11.80
2022-10-24T07:56:54.110Z,11.90
2022-10-24T07:57:29.788Z,12.00
2022-10-24T07:58:05.468Z,12.00
2022-10-24T07:58:41.389Z,12.10
2022-10-24T07:59:37.313Z,12.20
2022-10-24T08:00:14.988Z,12.20
2022-10-24T08:00:49.663Z,12.20
2022-10-24T08:01:26.863Z,12.30
2022-10-24T08:02:03.914Z,12.30